createdAt,value
2022-12-27T00:01:31.570Z,101894.38
2022-12-27T00:03:58.136Z,101878.47
2022-12-27T00:06:26.444Z,101890.03
2022-12-27T00:08:53.327Z,101880.25
2022-12-27T00:11:22.847Z,101895.25
2022-12-27T00:13:49.956Z,101886.34
2022-12-27T00:16:18.705Z,101891.94
2022-12-27T00:18:46.472Z,101892.75
2022-12-27T00:21:14.067Z,101899.81
2022-12-27T00:23:44.717Z,101892.00
2022-12-27T00:26:13.762Z,101892.97
2022-12-27T00:28:40.534Z,101886.63
2022-12-27T00:31:07.319Z,101900.97
2022-12-27T00:33:36.161Z,101898.13
2022-12-27T00:36:06.281Z,101901.78
2022-12-27T00:38:33.499Z,101901.16
2022-12-27T00:41:00.729Z,101910.25
2022-12-27T00:43:27.458Z,101896.81
2022-12-27T00:45:54.056Z,101908.53
2022-12-27T00:48:20.893Z,101900.53
2022-12-27T00:50:47.573Z,101907.91
2022-12-27T00:53:14.274Z,101900.94
2022-12-27T00:55:44.351Z,101909.94
2022-12-27T00:58:11.665Z,101901.75
2022-12-27T01:00:38.115Z,101901.78
2022-12-27T01:03:04.675Z,101903.78
2022-12-27T01:05:31.358Z,101912.97
2022-12-27T01:07:57.761Z,101916.06
2022-12-27T01:10:24.122Z,101915.31
2022-12-27T01:12:50.512Z,101922.41
2022-12-27T01:15:16.971Z,101932.94
2022-12-27T01:17:43.353Z,101939.03
2022-12-27T01:20:10.111Z,101933.78
2022-12-27T01:22:36.878Z,101937.09
2022-12-27T01:25:03.510Z,101942.84
2022-12-27T01:27:29.918Z,101943.72
2022-12-27T01:29:56.303Z,101947.53
2022-12-27T01:32:22.843Z,101950.28
2022-12-27T01:34:50.546Z,101959.09
2022-12-27T01:37:17.073Z,101964.41
2022-12-27T01:39:43.512Z,101968.00
2022-12-27T01:42:35.411Z,101967.38
2022-12-27T01:45:02.574Z,101969.25
2022-12-27T01:47:45.214Z,101957.66
2022-12-27T01:50:38.928Z,101977.19
2022-12-27T01:53:19.745Z,101973.75
2022-12-27T01:55:56.392Z,101984.88
2022-12-27T01:58:40.678Z,101977.97
2022-12-27T02:01:16.364Z,101994.28
2022-12-27T02:04:07.796Z,101983.28
2022-12-27T02:06:35.814Z,101997.66
2022-12-27T02:09:24.150Z,101990.41
2022-12-27T02:11:56.376Z,101995.59
2022-12-27T02:14:29.589Z,101999.03
2022-12-27T02:16:58.753Z,101992.72
2022-12-27T02:19:40.527Z,101999.84
2022-12-27T02:23:03.420Z,102008.84
2022-12-27T02:25:50.918Z,102018.81
2022-12-27T02:28:54.484Z,102014.22
2022-12-27T02:31:29.728Z,102010.56
2022-12-27T02:33:59.951Z,102011.66
2022-12-27T02:36:31.720Z,102017.13
2022-12-27T02:39:01.507Z,102012.75
2022-12-27T02:41:50.191Z,102018.25
2022-12-27T02:44:37.039Z,102022.06
2022-12-27T02:47:23.762Z,102035.41
2022-12-27T02:50:25.350Z,102023.84
2022-12-27T02:53:12.151Z,102034.47
2022-12-27T02:56:18.745Z,102035.25
2022-12-27T02:59:14.268Z,102038.66
2022-12-27T03:02:18.947Z,102039.50
2022-12-27T03:05:00.653Z,102038.69
2022-12-27T03:07:46.619Z,102035.16
2022-12-27T03:10:54.311Z,102031.72
2022-12-27T03:13:53.048Z,102025.28
2022-12-27T03:16:55.818Z,102038.50
2022-12-27T03:19:56.745Z,102029.72
2022-12-27T03:22:45.847Z,102039.75
2022-12-27T03:25:29.388Z,102045.28
2022-12-27T03:28:23.268Z,102043.44
2022-12-27T03:31:13.390Z,102024.75
2022-12-27T03:33:42.669Z,102042.81
2022-12-27T03:36:34.683Z,102044.72
2022-12-27T03:39:19.972Z,102044.63
2022-12-27T03:42:09.733Z,102049.13
2022-12-27T03:44:36.288Z,102050.00
2022-12-27T03:47:16.010Z,102048.31
2022-12-27T03:49:49.509Z,102051.00
2022-12-27T03:52:19.759Z,102055.50
2022-12-27T03:54:49.554Z,102046.47
2022-12-27T03:57:19.690Z,102055.38
2022-12-27T03:59:46.215Z,102062.38
2022-12-27T04:02:12.938Z,102052.56
2022-12-27T04:04:39.797Z,102060.50
2022-12-27T04:07:06.956Z,102063.94
2022-12-27T04:09:52.250Z,102076.59
2022-12-27T04:12:37.006Z,102078.47
2022-12-27T04:15:22.808Z,102087.50
2022-12-27T04:18:07.638Z,102092.00
2022-12-27T04:20:52.476Z,102083.97
2022-12-27T04:23:37.334Z,102084.84
2022-12-27T04:26:22.873Z,102090.16
2022-12-27T04:29:07.812Z,102091.13
2022-12-27T04:31:53.187Z,102087.75
2022-12-27T04:34:38.157Z,102088.50
2022-12-27T04:37:04.482Z,102087.84
2022-12-27T04:39:32.028Z,102089.53
2022-12-27T04:42:17.281Z,102090.50
2022-12-27T04:45:03.954Z,102098.56
2022-12-27T04:47:50.415Z,102088.63
2022-12-27T04:50:45.808Z,102091.41
2022-12-27T04:53:32.063Z,102095.78
2022-12-27T04:55:58.550Z,102103.84
2022-12-27T04:58:25.672Z,102104.72
2022-12-27T05:01:14.311Z,102095.72
2022-12-27T05:03:41.989Z,102100.03
2022-12-27T05:06:08.707Z,102108.03
2022-12-27T05:08:53.786Z,102098.31
2022-12-27T05:11:39.167Z,102108.88
2022-12-27T05:14:11.139Z,102108.09
2022-12-27T05:16:39.911Z,102117.13
2022-12-27T05:19:08.616Z,102117.94
2022-12-27T05:21:37.059Z,102108.91
2022-12-27T05:24:22.907Z,102123.16
2022-12-27T05:26:49.560Z,102113.25
2022-12-27T05:29:16.229Z,102124.88
2022-12-27T05:31:42.839Z,102123.97
2022-12-27T05:34:09.254Z,102117.75
2022-12-27T05:36:35.655Z,102128.25
2022-12-27T05:39:02.174Z,102134.63
2022-12-27T05:41:28.621Z,102130.22
2022-12-27T05:43:55.035Z,102148.06
2022-12-27T05:46:22.274Z,102152.47
2022-12-27T05:48:49.557Z,102141.72
2022-12-27T05:51:19.181Z,102141.75
2022-12-27T05:53:45.962Z,102147.97
2022-12-27T05:56:18.765Z,102156.88
2022-12-27T05:58:45.290Z,102157.84
2022-12-27T06:01:14.864Z,102153.50
2022-12-27T06:03:41.689Z,102154.41
2022-12-27T06:06:08.788Z,102154.56
2022-12-27T06:08:36.049Z,102168.06
2022-12-27T06:11:14.150Z,102165.59
2022-12-27T06:13:44.166Z,102164.53
2022-12-27T06:16:12.170Z,102159.81
2022-12-27T06:18:40.510Z,102171.34
2022-12-27T06:21:16.165Z,102161.56
2022-12-27T06:23:44.713Z,102165.97
2022-12-27T06:26:18.722Z,102187.47
2022-12-27T06:28:45.414Z,102175.22
2022-12-27T06:31:11.850Z,102184.38
2022-12-27T06:33:38.387Z,102188.13
2022-12-27T06:36:11.459Z,102196.16
2022-12-27T06:38:38.514Z,102190.78
2022-12-27T06:41:07.162Z,102203.28
2022-12-27T06:43:34.325Z,102198.88
2022-12-27T06:46:03.647Z,102189.03
2022-12-27T06:48:30.960Z,102197.16
2022-12-27T06:50:57.812Z,102194.50
2022-12-27T06:53:24.589Z,102202.41
2022-12-27T06:55:51.079Z,102200.69
2022-12-27T06:58:17.492Z,102205.28
2022-12-27T07:00:44.027Z,102197.28
2022-12-27T07:03:10.610Z,102205.47
2022-12-27T07:05:38.040Z,102210.81
2022-12-27T07:08:05.102Z,102205.47
2022-12-27T07:10:31.821Z,102208.28
2022-12-27T07:12:58.483Z,102209.09
2022-12-27T07:15:25.028Z,102210.84
2022-12-27T07:17:51.575Z,102212.78
2022-12-27T07:20:18.108Z,102220.94
2022-12-27T07:22:44.512Z,102203.31
2022-12-27T07:25:10.934Z,102206.19
2022-12-27T07:27:37.708Z,102216.88
2022-12-27T07:30:05.239Z,102213.25
2022-12-27T07:32:31.653Z,102218.47
2022-12-27T07:34:58.006Z,102225.75
2022-12-27T07:37:24.431Z,102228.25
2022-12-27T07:39:50.910Z,102242.41
2022-12-27T07:42:17.354Z,102229.91
2022-12-27T07:44:43.772Z,102222.97
2022-12-27T07:47:10.172Z,102234.56
2022-12-27T07:49:36.605Z,102222.97
2022-12-27T07:52:03.074Z,102231.72
2022-12-27T07:54:29.478Z,102247.72
2022-12-27T07:56:55.862Z,102246.66
2022-12-27T07:59:22.402Z,102246.66
2022-12-27T08:02:04.094Z,102251.84
2022-12-27T08:04:32.155Z,102251.94
2022-12-27T08:07:17.632Z,102259.19
2022-12-27T08:09:46.363Z,102259.19
2022-12-27T08:12:15.940Z,102259.97
2022-12-27T08:14:42.343Z,102269.72
2022-12-27T08:17:21.088Z,102260.78
2022-12-27T08:19:47.637Z,102265.19
2022-12-27T08:22:14.075Z,102263.25
2022-12-27T08:24:41.614Z,102266.66
2022-12-27T08:27:08.564Z,102268.47
2022-12-27T08:29:34.971Z,102274.72
2022-12-27T08:32:01.579Z,102275.44
2022-12-27T08:34:28.063Z,102269.81
2022-12-27T08:36:55.957Z,102262.47
2022-12-27T08:39:23.180Z,102266.97
2022-12-27T08:41:49.773Z,102273.88
2022-12-27T08:44:16.148Z,102270.22
2022-12-27T08:46:42.614Z,102269.38
2022-12-27T08:49:09.036Z,102264.16
2022-12-27T08:51:40.770Z,102260.59
2022-12-27T08:54:07.884Z,102264.06
2022-12-27T08:56:34.331Z,102247.06
2022-12-27T08:59:00.904Z,102246.97
2022-12-27T09:01:27.586Z,102258.44
2022-12-27T09:03:54.260Z,102256.69
2022-12-27T09:06:23.073Z,102257.41
2022-12-27T09:08:51.208Z,102255.47
2022-12-27T09:11:23.475Z,102257.19
2022-12-27T09:13:50.291Z,102263.34
2022-12-27T09:16:23.063Z,102262.28
2022-12-27T09:18:51.962Z,102262.28
2022-12-27T09:21:20.196Z,102263.09
2022-12-27T09:23:47.230Z,102260.22
2022-12-27T09:26:16.174Z,102267.22
2022-12-27T09:28:43.149Z,102270.91
2022-12-27T09:31:11.029Z,102262.72
2022-12-27T09:33:37.656Z,102271.47
2022-12-27T09:36:06.626Z,102269.38
2022-12-27T09:38:33.495Z,102269.09
2022-12-27T09:41:03.207Z,102260.88
2022-12-27T09:43:40.321Z,102254.38
2022-12-27T09:46:18.200Z,102261.38
2022-12-27T09:48:44.964Z,102269.97
2022-12-27T09:51:25.061Z,102275.06
2022-12-27T09:54:04.440Z,102272.97
2022-12-27T09:57:01.795Z,102283.41
2022-12-27T09:59:34.163Z,102288.72
2022-12-27T10:02:00.770Z,102300.22
2022-12-27T10:04:52.914Z,102305.41
2022-12-27T10:07:32.496Z,102302.63
2022-12-27T10:10:18.775Z,102304.25
2022-12-27T10:13:02.514Z,102294.47
2022-12-27T10:15:46.884Z,102296.34
2022-12-27T10:18:37.056Z,102283.69
2022-12-27T10:21:19.666Z,102291.72
2022-12-27T10:23:53.219Z,102285.19
2022-12-27T10:26:20.382Z,102299.47
2022-12-27T10:28:56.852Z,102296.72
2022-12-27T10:31:25.191Z,102287.00
2022-12-27T10:33:52.433Z,102294.97
2022-12-27T10:36:29.595Z,102289.69
2022-12-27T10:38:56.783Z,102289.16
2022-12-27T10:41:33.488Z,102291.75
2022-12-27T10:43:59.869Z,102304.22
2022-12-27T10:46:33.124Z,102302.38
2022-12-27T10:51:49.802Z,102296.41
2022-12-27T10:54:21.158Z,102302.38
2022-12-27T10:56:47.633Z,102295.94
2022-12-27T10:59:21.861Z,102296.97
2022-12-27T11:02:06.945Z,102292.22
2022-12-27T11:04:33.483Z,102287.50
2022-12-27T11:06:59.956Z,102284.63
2022-12-27T11:09:29.189Z,102285.44
2022-12-27T11:12:11.729Z,102287.22
2022-12-27T11:14:38.253Z,102286.28
2022-12-27T11:17:10.519Z,102285.38
2022-12-27T11:19:39.843Z,102276.19
2022-12-27T11:22:09.018Z,102280.25
2022-12-27T11:24:36.247Z,102282.75
2022-12-27T11:27:03.858Z,102274.28
2022-12-27T11:29:32.085Z,102281.75
2022-12-27T11:32:07.045Z,102274.94
2022-12-27T11:34:37.484Z,102276.94
2022-12-27T11:37:14.275Z,102267.91
2022-12-27T11:39:44.861Z,102261.84
2022-12-27T11:42:33.507Z,102273.59
2022-12-27T11:45:11.243Z,102266.88
2022-12-27T11:47:45.659Z,102269.66
2022-12-27T11:50:27.271Z,102261.81
2022-12-27T11:53:19.735Z,102264.88
2022-12-27T11:56:05.702Z,102256.94
2022-12-27T11:58:45.677Z,102255.31
2022-12-27T12:01:27.734Z,102250.00
2022-12-27T12:04:10.711Z,102250.13
2022-12-27T12:07:11.606Z,102245.78
2022-12-27T12:09:53.035Z,102253.19
2022-12-27T12:12:55.583Z,102252.06
2022-12-27T12:15:37.204Z,102248.94
2022-12-27T12:18:21.983Z,102240.13
2022-12-27T12:21:16.280Z,102232.00
2022-12-27T12:24:13.589Z,102222.28
2022-12-27T12:26:58.438Z,102208.81
2022-12-27T12:29:43.329Z,102212.41
2022-12-27T12:32:34.751Z,102203.53
2022-12-27T12:35:23.877Z,102204.41
2022-12-27T12:38:05.508Z,102202.53
2022-12-27T12:40:54.053Z,102198.78
2022-12-27T12:43:56.914Z,102194.66
2022-12-27T12:46:37.144Z,102191.25
2022-12-27T12:49:10.121Z,102184.47
2022-12-27T12:52:03.156Z,102171.34
2022-12-27T12:54:54.117Z,102163.56
2022-12-27T12:57:57.932Z,102148.63
2022-12-27T13:00:49.309Z,102147.09
2022-12-27T13:03:40.563Z,102147.00
2022-12-27T13:06:09.916Z,102146.66
2022-12-27T13:09:11.766Z,102135.00
2022-12-27T13:11:48.560Z,102130.47
2022-12-27T13:14:27.226Z,102127.97
2022-12-27T13:17:15.551Z,102126.31
2022-12-27T13:20:37.860Z,102127.34
2022-12-27T13:23:26.033Z,102114.03
2022-12-27T13:26:03.399Z,102110.44
2022-12-27T13:28:46.185Z,102116.72
2022-12-27T13:31:39.993Z,102110.38
2022-12-27T13:34:37.530Z,102105.72
2022-12-27T13:37:31.128Z,102098.63
2022-12-27T13:40:03.210Z,102103.97
2022-12-27T13:43:05.775Z,102098.63
2022-12-27T13:45:46.439Z,102104.91
2022-12-27T13:48:44.153Z,102104.06
2022-12-27T13:51:22.149Z,102099.56
2022-12-27T13:53:51.064Z,102090.63
2022-12-27T13:56:55.565Z,102099.63
2022-12-27T13:59:52.529Z,102092.47
2022-12-27T14:02:37.181Z,102093.47
2022-12-27T14:05:09.680Z,102077.34
2022-12-27T14:07:52.812Z,102068.56
2022-12-27T14:10:19.310Z,102074.00
2022-12-27T14:12:58.650Z,102069.66
2022-12-27T14:15:41.039Z,102070.66
2022-12-27T14:18:10.548Z,102059.91
2022-12-27T14:21:24.712Z,102056.41
2022-12-27T14:23:58.903Z,102049.25
2022-12-27T14:26:39.807Z,102044.72
2022-12-27T14:29:25.097Z,102042.78
2022-12-27T14:32:03.673Z,102031.66
2022-12-27T14:35:08.204Z,102037.06
2022-12-27T14:37:56.382Z,102035.22
2022-12-27T14:40:50.134Z,102028.03
2022-12-27T14:43:34.808Z,102021.78
2022-12-27T14:46:01.190Z,102022.78
2022-12-27T14:48:58.151Z,102034.53
2022-12-27T14:52:12.316Z,102033.72
2022-12-27T14:55:10.621Z,102036.69
2022-12-27T14:57:55.004Z,102041.50
2022-12-27T15:00:24.295Z,102038.69
2022-12-27T15:03:14.405Z,102043.47
2022-12-27T15:06:20.226Z,102050.63
2022-12-27T15:08:52.576Z,102050.63
2022-12-27T15:11:28.620Z,102053.47
2022-12-27T15:14:07.108Z,102053.59
2022-12-27T15:16:52.347Z,102041.13
2022-12-27T15:19:43.831Z,102047.53
2022-12-27T15:22:23.129Z,102043.81
2022-12-27T15:25:14.915Z,102046.47
2022-12-27T15:27:47.028Z,102058.72
2022-12-27T15:30:38.221Z,102047.03
2022-12-27T15:33:26.542Z,102025.50
2022-12-27T15:36:03.180Z,102036.28
2022-12-27T15:38:35.446Z,102021.97
2022-12-27T15:41:07.956Z,102015.81
2022-12-27T15:43:43.479Z,102013.38
2022-12-27T15:46:36.135Z,102013.28
2022-12-27T15:49:45.226Z,102015.66
2022-12-27T15:52:53.259Z,102009.22
2022-12-27T15:55:34.864Z,102007.50
2022-12-27T15:58:01.259Z,101987.69
2022-12-27T16:00:33.812Z,101987.66
2022-12-27T16:03:39.681Z,101982.34
2022-12-27T16:06:07.717Z,101983.16
2022-12-27T16:08:37.787Z,101981.38
2022-12-27T16:11:09.646Z,101968.78
2022-12-27T16:13:41.913Z,101971.41
2022-12-27T16:16:28.496Z,101964.31
2022-12-27T16:19:08.776Z,101959.84
2022-12-27T16:21:41.665Z,101962.47
2022-12-27T16:24:20.842Z,101963.50
2022-12-27T16:27:00.446Z,101962.41
2022-12-27T16:29:33.907Z,101970.25
2022-12-27T16:32:19.871Z,101968.47
2022-12-27T16:34:51.374Z,101955.78
2022-12-27T16:37:44.719Z,101964.75
2022-12-27T16:40:42.179Z,101959.44
2022-12-27T16:43:08.534Z,101961.38
2022-12-27T16:45:37.678Z,101951.63
2022-12-27T16:48:35.131Z,101957.00
2022-12-27T16:51:19.456Z,101956.13
2022-12-27T16:53:48.845Z,101950.00
2022-12-27T16:56:21.642Z,101941.16
2022-12-27T16:58:48.327Z,101945.75
2022-12-27T17:01:36.564Z,101936.75
2022-12-27T17:04:04.063Z,101937.56
2022-12-27T17:06:32.565Z,101932.88
2022-12-27T17:09:09.171Z,101932.69
2022-12-27T17:11:47.485Z,101922.06
2022-12-27T17:14:27.879Z,101919.34
2022-12-27T17:17:14.072Z,101929.94
2022-12-27T17:19:48.766Z,101913.84
2022-12-27T17:22:17.081Z,101922.75
2022-12-27T17:24:45.817Z,101899.44
2022-12-27T17:27:26.271Z,101895.06
2022-12-27T17:30:14.615Z,101893.34
2022-12-27T17:33:03.192Z,101896.09
2022-12-27T17:35:39.084Z,101877.47
2022-12-27T17:38:36.350Z,101877.38
2022-12-27T17:41:15.956Z,101886.53
2022-12-27T17:44:14.319Z,101875.63
2022-12-27T17:47:05.609Z,101860.50
2022-12-27T17:49:34.668Z,101862.22
2022-12-27T17:52:20.513Z,101867.47
2022-12-27T17:55:05.395Z,101858.31
2022-12-27T17:57:50.603Z,101861.78
2022-12-27T18:00:32.853Z,101859.06
2022-12-27T18:03:02.664Z,101856.25
2022-12-27T18:05:32.680Z,101832.72
2022-12-27T18:08:05.305Z,101828.34
2022-12-27T18:10:34.432Z,101841.59
2022-12-27T18:13:04.589Z,101805.78
2022-12-27T18:15:34.548Z,101813.91
2022-12-27T18:18:09.090Z,101801.59
2022-12-27T18:20:38.527Z,101806.75
2022-12-27T18:23:05.479Z,101796.63
2022-12-27T18:25:36.349Z,101804.41
2022-12-27T18:28:15.037Z,101794.53
2022-12-27T18:31:12.941Z,101790.66
2022-12-27T18:33:43.813Z,101795.88
2022-12-27T18:36:34.958Z,101772.47
2022-12-27T18:39:28.149Z,101792.47
2022-12-27T18:41:56.671Z,101768.38
2022-12-27T18:44:46.572Z,101783.47
2022-12-27T18:47:21.537Z,101783.75
2022-12-27T18:49:58.236Z,101770.53
2022-12-27T18:52:31.622Z,101766.19
2022-12-27T18:55:19.154Z,101759.25
2022-12-27T18:57:46.826Z,101765.44
2022-12-27T19:00:26.468Z,101749.50
2022-12-27T19:02:54.827Z,101748.31
2022-12-27T19:05:21.559Z,101736.66
2022-12-27T19:07:52.342Z,101737.47
2022-12-27T19:10:21.629Z,101725.09
2022-12-27T19:12:48.896Z,101735.31
2022-12-27T19:15:22.064Z,101734.34
2022-12-27T19:17:52.460Z,101717.25
2022-12-27T19:20:25.989Z,101710.25
2022-12-27T19:22:55.694Z,101712.81
2022-12-27T19:25:24.077Z,101706.78
2022-12-27T19:28:19.731Z,101686.19
2022-12-27T19:31:17.575Z,101688.13
2022-12-27T19:33:51.366Z,101684.53
2022-12-27T19:36:24.953Z,101668.72
2022-12-27T19:38:51.668Z,101674.03
2022-12-27T19:41:18.125Z,101661.56
2022-12-27T19:43:46.135Z,101653.53
2022-12-27T19:46:13.848Z,101657.06
2022-12-27T19:48:41.024Z,101655.31
2022-12-27T19:51:09.822Z,101649.78
2022-12-27T19:53:42.102Z,101648.66
2022-12-27T19:56:09.937Z,101646.03
2022-12-27T19:58:36.537Z,101632.63
2022-12-27T20:01:03.416Z,101641.53
2022-12-27T20:03:29.961Z,101629.81
2022-12-27T20:06:13.026Z,101631.59
2022-12-27T20:08:49.512Z,101621.50
2022-12-27T20:11:19.154Z,101615.34
2022-12-27T20:13:45.825Z,101618.94
2022-12-27T20:16:14.591Z,101628.72
2022-12-27T20:18:41.930Z,101619.69
2022-12-27T20:21:13.177Z,101609.88
2022-12-27T20:23:39.622Z,101618.84
2022-12-27T20:26:06.163Z,101614.31
2022-12-27T20:28:33.437Z,101604.53
2022-12-27T20:31:04.977Z,101599.25
2022-12-27T20:33:31.368Z,101608.13
2022-12-27T20:35:58.481Z,101617.00
2022-12-27T20:38:25.912Z,101606.03
2022-12-27T20:40:52.593Z,101597.16
2022-12-27T20:43:20.242Z,101597.97
2022-12-27T20:45:46.803Z,101602.53
2022-12-27T20:48:13.242Z,101604.19
2022-12-27T20:50:41.104Z,101586.22
2022-12-27T20:53:07.840Z,101571.75
2022-12-27T20:55:34.765Z,101574.44
2022-12-27T20:58:01.312Z,101552.06
2022-12-27T21:00:28.090Z,101571.63
2022-12-27T21:02:54.676Z,101572.63
2022-12-27T21:05:21.200Z,101581.59
2022-12-27T21:07:47.580Z,101562.13
2022-12-27T21:10:14.171Z,101564.94
2022-12-27T21:12:40.815Z,101563.44
2022-12-27T21:15:08.612Z,101560.94
2022-12-27T21:17:35.243Z,101551.16
2022-12-27T21:20:01.678Z,101551.34
2022-12-27T21:22:28.272Z,101551.41
2022-12-27T21:24:54.667Z,101548.06
2022-12-27T21:27:21.085Z,101539.97
2022-12-27T21:29:47.511Z,101536.53
2022-12-27T21:32:13.950Z,101528.56
2022-12-27T21:34:41.248Z,101539.44
2022-12-27T21:37:12.987Z,101516.34
2022-12-27T21:39:40.011Z,101520.78
2022-12-27T21:42:06.413Z,101523.66
2022-12-27T21:44:35.279Z,101522.66
2022-12-27T21:47:01.672Z,101518.28
2022-12-27T21:49:28.078Z,101519.16
2022-12-27T21:51:55.616Z,101515.56
2022-12-27T21:54:22.147Z,101518.28
2022-12-27T21:56:48.632Z,101506.91
2022-12-27T21:59:15.017Z,101504.28
2022-12-27T22:01:50.448Z,101495.50
2022-12-27T22:04:19.077Z,101492.00
2022-12-27T22:06:47.528Z,101491.25
2022-12-27T22:09:15.027Z,101484.09
2022-12-27T22:11:41.477Z,101474.28
2022-12-27T22:14:07.985Z,101469.00
2022-12-27T22:16:37.055Z,101462.72
2022-12-27T22:19:09.178Z,101455.50
2022-12-27T22:21:37.905Z,101447.59
2022-12-27T22:24:05.384Z,101454.81
2022-12-27T22:26:37.217Z,101445.00
2022-12-27T22:29:06.720Z,101413.81
2022-12-27T22:31:37.973Z,101429.97
2022-12-27T22:34:05.757Z,101423.78
2022-12-27T22:36:32.935Z,101423.78
2022-12-27T22:39:00.276Z,101415.72
2022-12-27T22:41:29.518Z,101413.09
2022-12-27T22:44:01.099Z,101403.38
2022-12-27T22:46:32.000Z,101396.28
2022-12-27T22:49:07.531Z,101388.25
2022-12-27T22:51:36.008Z,101387.28
2022-12-27T22:54:04.016Z,101372.03
2022-12-27T22:56:32.896Z,101374.59
2022-12-27T22:58:59.869Z,101363.88
2022-12-27T23:01:30.668Z,101358.75
2022-12-27T23:03:59.378Z,101337.41
2022-12-27T23:06:27.035Z,101329.47
2022-12-27T23:08:54.284Z,101320.59
2022-12-27T23:11:27.191Z,101319.69
2022-12-27T23:13:57.160Z,101310.78
2022-12-27T23:16:24.011Z,101313.50
2022-12-27T23:18:50.804Z,101305.47
2022-12-27T23:21:21.186Z,101307.19
2022-12-27T23:23:52.135Z,101301.03
2022-12-27T23:26:21.249Z,101282.25
2022-12-27T23:28:48.641Z,101274.16
2022-12-27T23:31:15.737Z,101266.09
2022-12-27T23:33:43.186Z,101273.31
2022-12-27T23:36:10.814Z,101274.13
2022-12-27T23:38:37.566Z,101253.59
2022-12-27T23:41:06.612Z,101255.34
2022-12-27T23:43:55.296Z,101254.31
2022-12-27T23:46:31.224Z,101222.25
2022-12-27T23:48:59.222Z,101242.78
2022-12-27T23:51:26.298Z,101225.88
2022-12-27T23:53:52.786Z,101226.94
2022-12-27T23:56:23.055Z,101203.63
2022-12-27T23:58:50.858Z,101186.53
